• Join FlightAware (Why Join?)
  • Login
  • US Flag 
11:08AM EST


 

Airport Tracker/Info


-or-


 

Live Flight TrackerFlight Track Log ✈ CES2376 ✈ 02-Sep-2013 ✈ ZLGM / GOQ - ZLXY / XIY

Flight Track Log - Related Links

Times and Time Zones

All times are in EDT time to prevent confusion due to time zone crossing. See the CES2376 flight status page for this flight to view local times or setup timezone preferences in your user account.

Time Position Orientation Groundspeed Altitude Reporting Facility
EDT Latitude Longitude Course Direction KTS MPH feet Rate Location/Type
04:59AM 34.6103 107.9279 96° East  Level Estimated
05:00AM 34.5834 108.0657 103° East  Level Estimated
05:01AM 34.5564 108.2033 103° East  Level Estimated
05:02AM 34.5292 108.3409 103° East  Level Estimated
05:03AM 34.5019 108.4784 104° East  Level Estimated
05:04AM 34.4744 108.6158 104° East  Level Estimated
05:05AM 34.4471 108.7516 104° East  Level Estimated
05:06AM 34.4471 108.7516 121° Southeast  Level Estimated
05:07AM 34.4471 108.7516 121° Southeast  Level Estimated
05:08AM 34.4471 108.7516 121° Southeast  Level Estimated
05:09AM 34.4471 108.7516 121° Southeast  Level Estimated
05:10AM 34.4471 108.7516 121° Southeast  Level Estimated
05:11AM 34.4471 108.7516 121° Southeast  Level Estimated
05:12AM 34.4471 108.7516 121° Southeast  Level Estimated
05:13AM 34.4471 108.7516 121° Southeast  Level Estimated
05:14AM 34.4471 108.7516 121° Southeast  Level Estimated
05:15AM 34.4471 108.7516 121° Southeast  Level Estimated
05:16AM 34.4471 108.7516 121° Southeast  Level Estimated
05:17AM 34.4471 108.7516 121° Southeast  Level Estimated
05:18AM 34.4471 108.7516 121° Southeast  Level Estimated
05:19AM 34.4471 108.7516 121° Southeast  Level Estimated
05:20AM 34.4471 108.7516 121° Southeast  Level Estimated
05:21AM 34.4471 108.7516 121° Southeast  Level Estimated